Airfield :
LOGIN :

Register | Disclaimer

   EN    FR    IT 

 










Legend :    VFR   Marginal VFR   IFR   Intensive IFR   Very Intensive IFR
Visi :
Ceiling :
>= 8 km
>= 3000ft
5 to 8 km
1000 to 3000 ft
1500m to 5 km
500 to 1000 ft
800 to 1500m
200 to 500 ft
< 800m
< 200 ft
Symbols :   Thunderstorms  Fog  Heavy snow  Heavy precipitations  Wind > 20 kt
SIGMETs :     Misc.  Thunderstorms  Icing  Turbulence  Mountain Waves  Volcanic Ashes






- Airport Elevation : 235 ft
- IATA code : BZG


EPBY - Bydgoszcz

CURRENT METAR :
  • 140730Z 18010KT 150V210 9999 SCT021 BKN026 03/00 Q0988

EXPIRED METARs :
  • 140700Z 18010KT 9999 -RA SCT026 BKN031 03/00 Q0988
  • 140630Z 18010KT 160V230 9999 SCT022 BKN037 03/00 Q0988
  • 140600Z 17010KT 9999 BKN029 OVC035 02/00 Q0988
  • 140530Z 17009KT 9999 -RA FEW007 BKN028 OVC034 02/00 Q0988
  • 140500Z 16009KT 9999 BKN024 OVC027 02/M00 Q0988

TAF TAF EPBY
Valid from the 14 at 06:00 until the 15 at 06:00 UTC


140530Z 1406/1506 16010KT 9999 BKN010
PROB40 1406/1408 BKN020
TEMPO 1407/1501 -RA BR BKN004
BECMG 1418/1421 25013KT



MET'MAP, your aeronautical weather chart ! - Copyright ORBIFLY December 2007 - Disclaimer

ORBIFLY MET'MAP TEAM :

Programming & Development : Alexandra Zaïnal
Concept & original design : Baudouin d'Aumeries
Assistance for programming : Marc-Olivier Méhu
Technical & hardware support : Manuel Goepfert

Contact : metmap@orbifly.com




SOURCES & CREDITS :

   NOAA